sensor_id;sensor_type;location;lat;lon;timestamp;P1;durP1;ratioP1;P2;durP2;ratioP2
39654;SDS011;25336;59.944;11.010;2024-03-02T00:00:23;13.57;;;9.82;;
39654;SDS011;25336;59.944;11.010;2024-03-02T00:02:50;15.82;;;9.60;;
39654;SDS011;25336;59.944;11.010;2024-03-02T00:05:19;15.52;;;9.95;;
39654;SDS011;25336;59.944;11.010;2024-03-02T00:07:54;14.18;;;9.57;;
39654;SDS011;25336;59.944;11.010;2024-03-02T00:10:24;16.50;;;10.32;;
39654;SDS011;25336;59.944;11.010;2024-03-02T00:12:56;15.85;;;9.90;;
39654;SDS011;25336;59.944;11.010;2024-03-02T00:17:52;24.45;;;11.07;;
39654;SDS011;25336;59.944;11.010;2024-03-02T00:20:18;17.08;;;9.93;;
39654;SDS011;25336;59.944;11.010;2024-03-02T00:22:47;17.45;;;10.30;;
39654;SDS011;25336;59.944;11.010;2024-03-02T00:25:13;20.00;;;9.95;;
39654;SDS011;25336;59.944;11.010;2024-03-02T00:27:39;18.65;;;10.90;;
39654;SDS011;25336;59.944;11.010;2024-03-02T00:30:29;22.95;;;12.32;;
39654;SDS011;25336;59.944;11.010;2024-03-02T00:33:10;32.40;;;10.85;;
39654;SDS011;25336;59.944;11.010;2024-03-02T00:35:36;72.72;;;13.05;;
39654;SDS011;25336;59.944;11.010;2024-03-02T00:38:05;31.67;;;10.43;;
39654;SDS011;25336;59.944;11.010;2024-03-02T00:40:31;54.55;;;10.88;;
39654;SDS011;25336;59.944;11.010;2024-03-02T00:42:57;78.15;;;14.43;;
39654;SDS011;25336;59.944;11.010;2024-03-02T00:45:24;53.80;;;11.15;;
39654;SDS011;25336;59.944;11.010;2024-03-02T00:47:51;55.70;;;11.25;;
39654;SDS011;25336;59.944;11.010;2024-03-02T00:50:18;61.63;;;12.00;;
39654;SDS011;25336;59.944;11.010;2024-03-02T00:52:44;43.83;;;11.68;;
39654;SDS011;25336;59.944;11.010;2024-03-02T00:55:13;63.03;;;10.98;;
39654;SDS011;25336;59.944;11.010;2024-03-02T00:57:39;64.90;;;10.52;;
39654;SDS011;25336;59.944;11.010;2024-03-02T01:00:05;114.13;;;12.48;;
39654;SDS011;25336;59.944;11.010;2024-03-02T01:02:35;103.85;;;11.88;;
39654;SDS011;25336;59.944;11.010;2024-03-02T01:05:01;69.80;;;10.13;;
39654;SDS011;25336;59.944;11.010;2024-03-02T01:07:26;68.38;;;10.85;;
39654;SDS011;25336;59.944;11.010;2024-03-02T01:09:52;106.60;;;12.30;;
39654;SDS011;25336;59.944;11.010;2024-03-02T01:12:18;102.95;;;11.52;;
39654;SDS011;25336;59.944;11.010;2024-03-02T01:14:43;111.15;;;12.15;;
39654;SDS011;25336;59.944;11.010;2024-03-02T01:17:09;66.18;;;10.48;;
39654;SDS011;25336;59.944;11.010;2024-03-02T01:19:35;55.45;;;9.38;;
39654;SDS011;25336;59.944;11.010;2024-03-02T01:22:00;56.35;;;9.57;;
39654;SDS011;25336;59.944;11.010;2024-03-02T01:24:26;54.90;;;9.60;;
39654;SDS011;25336;59.944;11.010;2024-03-02T01:26:52;75.55;;;11.00;;
39654;SDS011;25336;59.944;11.010;2024-03-02T01:29:17;113.85;;;10.52;;
39654;SDS011;25336;59.944;11.010;2024-03-02T01:31:43;80.45;;;11.27;;
39654;SDS011;25336;59.944;11.010;2024-03-02T01:34:10;59.55;;;8.23;;
39654;SDS011;25336;59.944;11.010;2024-03-02T01:36:37;51.25;;;8.20;;
39654;SDS011;25336;59.944;11.010;2024-03-02T01:39:03;33.58;;;7.03;;
39654;SDS011;25336;59.944;11.010;2024-03-02T01:41:34;57.30;;;8.02;;
39654;SDS011;25336;59.944;11.010;2024-03-02T01:43:59;59.33;;;9.30;;
39654;SDS011;25336;59.944;11.010;2024-03-02T01:46:25;37.85;;;7.50;;
39654;SDS011;25336;59.944;11.010;2024-03-02T01:48:51;29.98;;;8.65;;
39654;SDS011;25336;59.944;11.010;2024-03-02T01:51:17;32.50;;;7.13;;
39654;SDS011;25336;59.944;11.010;2024-03-02T01:53:42;29.73;;;7.25;;
39654;SDS011;25336;59.944;11.010;2024-03-02T01:56:08;28.77;;;7.05;;
39654;SDS011;25336;59.944;11.010;2024-03-02T01:58:34;35.67;;;7.35;;
39654;SDS011;25336;59.944;11.010;2024-03-02T02:00:59;42.25;;;7.20;;
39654;SDS011;25336;59.944;11.010;2024-03-02T02:03:25;57.75;;;7.45;;
39654;SDS011;25336;59.944;11.010;2024-03-02T02:05:51;52.97;;;8.40;;
39654;SDS011;25336;59.944;11.010;2024-03-02T02:08:17;27.35;;;6.97;;
39654;SDS011;25336;59.944;11.010;2024-03-02T02:10:45;45.08;;;7.20;;
39654;SDS011;25336;59.944;11.010;2024-03-02T02:13:11;61.25;;;8.00;;
39654;SDS011;25336;59.944;11.010;2024-03-02T02:15:36;52.38;;;7.97;;
39654;SDS011;25336;59.944;11.010;2024-03-02T02:18:02;64.18;;;6.95;;
39654;SDS011;25336;59.944;11.010;2024-03-02T02:20:29;61.90;;;6.93;;
39654;SDS011;25336;59.944;11.010;2024-03-02T02:23:01;71.18;;;7.22;;
39654;SDS011;25336;59.944;11.010;2024-03-02T02:25:28;64.15;;;7.38;;
39654;SDS011;25336;59.944;11.010;2024-03-02T02:27:54;69.35;;;7.60;;
39654;SDS011;25336;59.944;11.010;2024-03-02T02:30:24;53.40;;;8.40;;
39654;SDS011;25336;59.944;11.010;2024-03-02T02:32:51;61.70;;;6.85;;
39654;SDS011;25336;59.944;11.010;2024-03-02T02:35:17;35.22;;;5.93;;
39654;SDS011;25336;59.944;11.010;2024-03-02T02:37:43;48.97;;;6.60;;
39654;SDS011;25336;59.944;11.010;2024-03-02T02:40:11;105.75;;;10.07;;
39654;SDS011;25336;59.944;11.010;2024-03-02T02:42:37;42.85;;;6.28;;
39654;SDS011;25336;59.944;11.010;2024-03-02T02:45:03;63.70;;;7.28;;
39654;SDS011;25336;59.944;11.010;2024-03-02T02:47:30;90.97;;;7.38;;
39654;SDS011;25336;59.944;11.010;2024-03-02T02:49:58;78.57;;;8.65;;
39654;SDS011;25336;59.944;11.010;2024-03-02T02:52:26;123.15;;;9.93;;
39654;SDS011;25336;59.944;11.010;2024-03-02T02:54:58;110.30;;;9.00;;
39654;SDS011;25336;59.944;11.010;2024-03-02T02:57:24;93.47;;;7.72;;
39654;SDS011;25336;59.944;11.010;2024-03-02T02:59:49;98.75;;;7.75;;
39654;SDS011;25336;59.944;11.010;2024-03-02T03:02:15;264.35;;;12.65;;
39654;SDS011;25336;59.944;11.010;2024-03-02T03:04:40;123.57;;;7.60;;
39654;SDS011;25336;59.944;11.010;2024-03-02T03:07:06;203.82;;;10.88;;
39654;SDS011;25336;59.944;11.010;2024-03-02T03:09:32;215.10;;;12.63;;
39654;SDS011;25336;59.944;11.010;2024-03-02T03:11:57;250.23;;;14.85;;
39654;SDS011;25336;59.944;11.010;2024-03-02T03:14:23;206.77;;;11.70;;
39654;SDS011;25336;59.944;11.010;2024-03-02T03:16:49;213.85;;;13.60;;
39654;SDS011;25336;59.944;11.010;2024-03-02T03:19:16;233.20;;;13.50;;
39654;SDS011;25336;59.944;11.010;2024-03-02T03:21:43;242.85;;;14.48;;
39654;SDS011;25336;59.944;11.010;2024-03-02T03:24:09;268.63;;;15.02;;
39654;SDS011;25336;59.944;11.010;2024-03-02T03:26:37;232.38;;;13.15;;
39654;SDS011;25336;59.944;11.010;2024-03-02T03:29:03;196.43;;;12.57;;
39654;SDS011;25336;59.944;11.010;2024-03-02T03:31:29;227.18;;;12.70;;
39654;SDS011;25336;59.944;11.010;2024-03-02T03:33:55;265.52;;;13.02;;
39654;SDS011;25336;59.944;11.010;2024-03-02T03:36:20;280.55;;;16.67;;
39654;SDS011;25336;59.944;11.010;2024-03-02T03:38:46;255.00;;;14.50;;
39654;SDS011;25336;59.944;11.010;2024-03-02T03:41:13;231.90;;;15.60;;
39654;SDS011;25336;59.944;11.010;2024-03-02T03:43:38;267.02;;;16.13;;
39654;SDS011;25336;59.944;11.010;2024-03-02T03:46:04;305.75;;;18.48;;
39654;SDS011;25336;59.944;11.010;2024-03-02T03:48:30;348.63;;;19.35;;
39654;SDS011;25336;59.944;11.010;2024-03-02T03:50:56;256.90;;;17.73;;
39654;SDS011;25336;59.944;11.010;2024-03-02T03:53:22;226.38;;;14.40;;
39654;SDS011;25336;59.944;11.010;2024-03-02T03:55:47;331.77;;;17.63;;
39654;SDS011;25336;59.944;11.010;2024-03-02T03:58:14;280.63;;;15.93;;
39654;SDS011;25336;59.944;11.010;2024-03-02T04:00:42;237.43;;;14.43;;
39654;SDS011;25336;59.944;11.010;2024-03-02T04:03:07;302.60;;;15.32;;
39654;SDS011;25336;59.944;11.010;2024-03-02T04:05:33;306.63;;;16.25;;
39654;SDS011;25336;59.944;11.010;2024-03-02T04:07:58;182.30;;;11.15;;
39654;SDS011;25336;59.944;11.010;2024-03-02T04:10:25;194.00;;;11.65;;
39654;SDS011;25336;59.944;11.010;2024-03-02T04:12:51;325.60;;;16.67;;
39654;SDS011;25336;59.944;11.010;2024-03-02T04:15:17;244.18;;;14.63;;
39654;SDS011;25336;59.944;11.010;2024-03-02T04:17:43;220.18;;;14.75;;
39654;SDS011;25336;59.944;11.010;2024-03-02T04:20:09;343.35;;;15.98;;
39654;SDS011;25336;59.944;11.010;2024-03-02T04:22:37;293.00;;;14.90;;
39654;SDS011;25336;59.944;11.010;2024-03-02T04:25:03;300.55;;;15.77;;
39654;SDS011;25336;59.944;11.010;2024-03-02T04:27:30;314.33;;;20.02;;
39654;SDS011;25336;59.944;11.010;2024-03-02T04:29:57;184.70;;;10.05;;
39654;SDS011;25336;59.944;11.010;2024-03-02T04:32:22;172.80;;;11.35;;
39654;SDS011;25336;59.944;11.010;2024-03-02T04:34:48;275.98;;;13.73;;
39654;SDS011;25336;59.944;11.010;2024-03-02T04:37:15;301.45;;;17.30;;
39654;SDS011;25336;59.944;11.010;2024-03-02T04:39:40;228.20;;;13.82;;
39654;SDS011;25336;59.944;11.010;2024-03-02T04:42:08;247.00;;;13.45;;
39654;SDS011;25336;59.944;11.010;2024-03-02T04:44:34;175.30;;;11.68;;
39654;SDS011;25336;59.944;11.010;2024-03-02T04:47:00;218.20;;;14.50;;
39654;SDS011;25336;59.944;11.010;2024-03-02T04:49:25;201.38;;;11.55;;
39654;SDS011;25336;59.944;11.010;2024-03-02T04:51:51;143.98;;;11.45;;
39654;SDS011;25336;59.944;11.010;2024-03-02T04:54:17;270.40;;;14.63;;
39654;SDS011;25336;59.944;11.010;2024-03-02T04:56:43;279.15;;;15.07;;
39654;SDS011;25336;59.944;11.010;2024-03-02T04:59:10;355.75;;;19.13;;
39654;SDS011;25336;59.944;11.010;2024-03-02T05:01:36;276.48;;;15.55;;
39654;SDS011;25336;59.944;11.010;2024-03-02T05:04:02;292.08;;;17.70;;
39654;SDS011;25336;59.944;11.010;2024-03-02T05:06:28;325.13;;;19.90;;
39654;SDS011;25336;59.944;11.010;2024-03-02T05:08:53;275.05;;;15.73;;
39654;SDS011;25336;59.944;11.010;2024-03-02T05:11:19;300.45;;;16.52;;
39654;SDS011;25336;59.944;11.010;2024-03-02T05:13:56;162.73;;;12.02;;
39654;SDS011;25336;59.944;11.010;2024-03-02T05:16:21;211.75;;;13.43;;
39654;SDS011;25336;59.944;11.010;2024-03-02T05:18:47;267.83;;;16.65;;
39654;SDS011;25336;59.944;11.010;2024-03-02T05:21:13;210.88;;;14.15;;
39654;SDS011;25336;59.944;11.010;2024-03-02T05:23:38;200.55;;;14.27;;
39654;SDS011;25336;59.944;11.010;2024-03-02T05:26:04;115.05;;;10.32;;
39654;SDS011;25336;59.944;11.010;2024-03-02T05:28:30;114.97;;;11.63;;
39654;SDS011;25336;59.944;11.010;2024-03-02T05:30:56;131.27;;;12.23;;
39654;SDS011;25336;59.944;11.010;2024-03-02T05:33:22;106.85;;;12.02;;
39654;SDS011;25336;59.944;11.010;2024-03-02T05:35:47;192.57;;;15.02;;
39654;SDS011;25336;59.944;11.010;2024-03-02T05:38:15;209.18;;;14.50;;
39654;SDS011;25336;59.944;11.010;2024-03-02T05:40:41;188.05;;;15.43;;
39654;SDS011;25336;59.944;11.010;2024-03-02T05:43:07;133.43;;;11.63;;
39654;SDS011;25336;59.944;11.010;2024-03-02T05:45:33;177.93;;;13.02;;
39654;SDS011;25336;59.944;11.010;2024-03-02T05:47:58;109.60;;;12.10;;
39654;SDS011;25336;59.944;11.010;2024-03-02T05:50:24;186.85;;;14.85;;
39654;SDS011;25336;59.944;11.010;2024-03-02T05:52:50;192.75;;;14.63;;
39654;SDS011;25336;59.944;11.010;2024-03-02T05:55:15;229.07;;;15.45;;
39654;SDS011;25336;59.944;11.010;2024-03-02T05:57:41;252.57;;;18.65;;
39654;SDS011;25336;59.944;11.010;2024-03-02T06:00:10;272.38;;;17.23;;
39654;SDS011;25336;59.944;11.010;2024-03-02T06:02:40;284.33;;;17.45;;
39654;SDS011;25336;59.944;11.010;2024-03-02T06:05:06;319.15;;;20.48;;
39654;SDS011;25336;59.944;11.010;2024-03-02T06:07:34;250.73;;;19.13;;
39654;SDS011;25336;59.944;11.010;2024-03-02T06:10:00;314.55;;;17.35;;
39654;SDS011;25336;59.944;11.010;2024-03-02T06:12:27;217.07;;;17.40;;
39654;SDS011;25336;59.944;11.010;2024-03-02T06:14:52;160.23;;;13.25;;
39654;SDS011;25336;59.944;11.010;2024-03-02T06:17:18;229.80;;;15.05;;
39654;SDS011;25336;59.944;11.010;2024-03-02T06:19:44;213.77;;;16.23;;
39654;SDS011;25336;59.944;11.010;2024-03-02T06:22:09;186.80;;;13.93;;
39654;SDS011;25336;59.944;11.010;2024-03-02T06:24:36;284.30;;;19.58;;
39654;SDS011;25336;59.944;11.010;2024-03-02T06:27:02;235.07;;;18.63;;
39654;SDS011;25336;59.944;11.010;2024-03-02T06:29:29;236.65;;;17.60;;
39654;SDS011;25336;59.944;11.010;2024-03-02T06:31:57;238.38;;;17.10;;
39654;SDS011;25336;59.944;11.010;2024-03-02T06:34:22;279.58;;;19.58;;
39654;SDS011;25336;59.944;11.010;2024-03-02T06:36:48;278.80;;;20.05;;
39654;SDS011;25336;59.944;11.010;2024-03-02T06:39:14;320.38;;;23.40;;
39654;SDS011;25336;59.944;11.010;2024-03-02T06:41:40;243.77;;;17.38;;
39654;SDS011;25336;59.944;11.010;2024-03-02T06:44:05;325.08;;;21.38;;
39654;SDS011;25336;59.944;11.010;2024-03-02T06:46:31;409.10;;;23.90;;
39654;SDS011;25336;59.944;11.010;2024-03-02T06:48:57;386.65;;;21.63;;
39654;SDS011;25336;59.944;11.010;2024-03-02T06:51:23;334.80;;;22.60;;
39654;SDS011;25336;59.944;11.010;2024-03-02T06:53:48;407.75;;;28.00;;
39654;SDS011;25336;59.944;11.010;2024-03-02T06:56:14;344.65;;;23.58;;
39654;SDS011;25336;59.944;11.010;2024-03-02T06:58:40;372.75;;;23.65;;
39654;SDS011;25336;59.944;11.010;2024-03-02T07:01:05;408.35;;;28.23;;
39654;SDS011;25336;59.944;11.010;2024-03-02T07:03:31;398.00;;;25.83;;
39654;SDS011;25336;59.944;11.010;2024-03-02T07:05:58;498.20;;;34.42;;
39654;SDS011;25336;59.944;11.010;2024-03-02T07:08:23;299.88;;;22.15;;
39654;SDS011;25336;59.944;11.010;2024-03-02T07:10:49;447.73;;;31.27;;
39654;SDS011;25336;59.944;11.010;2024-03-02T07:13:14;398.00;;;28.35;;
39654;SDS011;25336;59.944;11.010;2024-03-02T07:15:40;532.83;;;32.95;;
39654;SDS011;25336;59.944;11.010;2024-03-02T07:18:35;456.42;;;29.48;;
39654;SDS011;25336;59.944;11.010;2024-03-02T07:21:07;481.70;;;33.95;;
39654;SDS011;25336;59.944;11.010;2024-03-02T07:23:32;304.65;;;22.70;;
39654;SDS011;25336;59.944;11.010;2024-03-02T07:25:59;367.67;;;25.20;;
39654;SDS011;25336;59.944;11.010;2024-03-02T07:28:26;429.25;;;27.35;;
39654;SDS011;25336;59.944;11.010;2024-03-02T07:31:02;420.13;;;25.17;;
39654;SDS011;25336;59.944;11.010;2024-03-02T07:33:32;371.85;;;26.58;;
39654;SDS011;25336;59.944;11.010;2024-03-02T07:35:58;383.70;;;28.33;;
39654;SDS011;25336;59.944;11.010;2024-03-02T07:38:25;355.92;;;22.50;;
39654;SDS011;25336;59.944;11.010;2024-03-02T07:40:52;377.08;;;26.08;;
39654;SDS011;25336;59.944;11.010;2024-03-02T07:43:18;397.67;;;26.33;;
39654;SDS011;25336;59.944;11.010;2024-03-02T07:45:44;426.15;;;28.13;;
39654;SDS011;25336;59.944;11.010;2024-03-02T07:48:11;426.55;;;28.48;;
39654;SDS011;25336;59.944;11.010;2024-03-02T07:50:36;471.02;;;30.35;;
39654;SDS011;25336;59.944;11.010;2024-03-02T07:53:04;426.75;;;27.80;;
39654;SDS011;25336;59.944;11.010;2024-03-02T07:55:30;509.80;;;32.78;;
39654;SDS011;25336;59.944;11.010;2024-03-02T07:57:56;425.70;;;25.98;;
39654;SDS011;25336;59.944;11.010;2024-03-02T08:00:22;433.85;;;26.48;;
39654;SDS011;25336;59.944;11.010;2024-03-02T08:02:48;395.15;;;22.83;;
39654;SDS011;25336;59.944;11.010;2024-03-02T08:05:17;341.50;;;25.35;;
39654;SDS011;25336;59.944;11.010;2024-03-02T08:07:46;326.70;;;23.42;;
39654;SDS011;25336;59.944;11.010;2024-03-02T08:10:12;356.23;;;23.17;;
39654;SDS011;25336;59.944;11.010;2024-03-02T08:12:38;354.40;;;23.40;;
39654;SDS011;25336;59.944;11.010;2024-03-02T08:15:04;322.13;;;21.83;;
39654;SDS011;25336;59.944;11.010;2024-03-02T08:17:30;392.48;;;25.17;;
39654;SDS011;25336;59.944;11.010;2024-03-02T08:19:57;195.20;;;14.82;;
39654;SDS011;25336;59.944;11.010;2024-03-02T08:22:23;125.65;;;10.40;;
39654;SDS011;25336;59.944;11.010;2024-03-02T08:24:54;92.72;;;10.48;;
39654;SDS011;25336;59.944;11.010;2024-03-02T08:27:19;79.95;;;8.98;;
39654;SDS011;25336;59.944;11.010;2024-03-02T08:29:45;86.78;;;9.48;;
39654;SDS011;25336;59.944;11.010;2024-03-02T08:32:11;91.05;;;10.52;;
39654;SDS011;25336;59.944;11.010;2024-03-02T08:34:36;56.13;;;9.68;;
39654;SDS011;25336;59.944;11.010;2024-03-02T08:37:02;64.53;;;9.27;;
39654;SDS011;25336;59.944;11.010;2024-03-02T08:39:34;83.05;;;8.90;;
39654;SDS011;25336;59.944;11.010;2024-03-02T08:44:25;57.75;;;8.98;;
39654;SDS011;25336;59.944;11.010;2024-03-02T08:46:51;87.68;;;9.85;;
39654;SDS011;25336;59.944;11.010;2024-03-02T08:49:17;39.92;;;8.40;;
39654;SDS011;25336;59.944;11.010;2024-03-02T08:54:20;18.63;;;6.80;;
39654;SDS011;25336;59.944;11.010;2024-03-02T08:56:54;10.15;;;5.90;;
39654;SDS011;25336;59.944;11.010;2024-03-02T08:59:20;7.30;;;6.00;;
39654;SDS011;25336;59.944;11.010;2024-03-02T09:01:46;8.43;;;6.47;;
39654;SDS011;25336;59.944;11.010;2024-03-02T09:04:11;11.43;;;6.70;;
39654;SDS011;25336;59.944;11.010;2024-03-02T09:06:37;6.68;;;5.40;;
39654;SDS011;25336;59.944;11.010;2024-03-02T09:09:03;8.95;;;6.18;;
39654;SDS011;25336;59.944;11.010;2024-03-02T09:11:29;8.02;;;5.95;;
39654;SDS011;25336;59.944;11.010;2024-03-02T09:13:55;7.38;;;5.13;;
39654;SDS011;25336;59.944;11.010;2024-03-02T09:16:22;10.15;;;6.32;;
39654;SDS011;25336;59.944;11.010;2024-03-02T09:18:49;6.70;;;4.78;;
39654;SDS011;25336;59.944;11.010;2024-03-02T09:21:16;7.63;;;5.95;;
39654;SDS011;25336;59.944;11.010;2024-03-02T09:23:41;6.50;;;4.82;;
39654;SDS011;25336;59.944;11.010;2024-03-02T09:26:09;7.22;;;5.18;;
39654;SDS011;25336;59.944;11.010;2024-03-02T09:28:35;7.13;;;5.78;;
39654;SDS011;25336;59.944;11.010;2024-03-02T09:31:01;5.10;;;4.60;;
39654;SDS011;25336;59.944;11.010;2024-03-02T09:33:26;5.75;;;4.82;;
39654;SDS011;25336;59.944;11.010;2024-03-02T09:38:21;5.28;;;4.57;;
39654;SDS011;25336;59.944;11.010;2024-03-02T09:40:47;4.93;;;4.43;;
39654;SDS011;25336;59.944;11.010;2024-03-02T09:43:12;4.95;;;4.30;;
39654;SDS011;25336;59.944;11.010;2024-03-02T09:45:38;5.68;;;5.00;;
39654;SDS011;25336;59.944;11.010;2024-03-02T09:48:05;6.30;;;5.05;;
39654;SDS011;25336;59.944;11.010;2024-03-02T09:50:32;8.15;;;5.93;;
39654;SDS011;25336;59.944;11.010;2024-03-02T09:53:00;9.40;;;6.82;;
39654;SDS011;25336;59.944;11.010;2024-03-02T09:55:25;10.48;;;7.18;;
39654;SDS011;25336;59.944;11.010;2024-03-02T09:57:52;6.55;;;5.32;;
39654;SDS011;25336;59.944;11.010;2024-03-02T10:00:18;6.25;;;4.95;;
39654;SDS011;25336;59.944;11.010;2024-03-02T10:02:46;6.25;;;5.07;;
39654;SDS011;25336;59.944;11.010;2024-03-02T10:08:00;5.95;;;4.72;;
39654;SDS011;25336;59.944;11.010;2024-03-02T10:10:34;5.68;;;4.53;;
39654;SDS011;25336;59.944;11.010;2024-03-02T10:13:07;4.97;;;4.45;;
39654;SDS011;25336;59.944;11.010;2024-03-02T10:15:35;5.72;;;5.13;;
39654;SDS011;25336;59.944;11.010;2024-03-02T10:18:12;6.57;;;4.45;;
39654;SDS011;25336;59.944;11.010;2024-03-02T10:20:46;5.15;;;4.57;;
39654;SDS011;25336;59.944;11.010;2024-03-02T10:23:14;10.80;;;5.97;;
39654;SDS011;25336;59.944;11.010;2024-03-02T10:25:41;14.68;;;6.43;;
39654;SDS011;25336;59.944;11.010;2024-03-02T10:28:08;14.18;;;6.82;;
39654;SDS011;25336;59.944;11.010;2024-03-02T10:30:34;18.15;;;7.05;;
39654;SDS011;25336;59.944;11.010;2024-03-02T10:33:02;11.43;;;5.13;;
39654;SDS011;25336;59.944;11.010;2024-03-02T10:35:30;8.15;;;5.75;;
39654;SDS011;25336;59.944;11.010;2024-03-02T10:37:58;11.85;;;5.93;;
39654;SDS011;25336;59.944;11.010;2024-03-02T10:40:26;8.73;;;5.35;;
39654;SDS011;25336;59.944;11.010;2024-03-02T10:42:52;4.57;;;4.18;;
39654;SDS011;25336;59.944;11.010;2024-03-02T10:45:19;5.45;;;4.90;;
39654;SDS011;25336;59.944;11.010;2024-03-02T10:47:48;6.17;;;4.47;;
39654;SDS011;25336;59.944;11.010;2024-03-02T10:50:15;6.85;;;5.07;;
39654;SDS011;25336;59.944;11.010;2024-03-02T10:52:41;8.02;;;4.65;;
39654;SDS011;25336;59.944;11.010;2024-03-02T10:55:08;4.85;;;4.35;;
39654;SDS011;25336;59.944;11.010;2024-03-02T10:57:41;6.43;;;4.65;;
39654;SDS011;25336;59.944;11.010;2024-03-02T11:00:14;7.55;;;5.22;;
39654;SDS011;25336;59.944;11.010;2024-03-02T11:02:46;6.10;;;4.97;;
39654;SDS011;25336;59.944;11.010;2024-03-02T11:05:26;5.35;;;4.72;;
39654;SDS011;25336;59.944;11.010;2024-03-02T11:08:12;5.88;;;5.28;;
39654;SDS011;25336;59.944;11.010;2024-03-02T11:10:41;5.45;;;4.43;;
39654;SDS011;25336;59.944;11.010;2024-03-02T11:13:16;5.53;;;4.60;;
39654;SDS011;25336;59.944;11.010;2024-03-02T11:15:51;5.72;;;4.82;;
39654;SDS011;25336;59.944;11.010;2024-03-02T11:18:20;5.57;;;4.53;;
39654;SDS011;25336;59.944;11.010;2024-03-02T11:20:46;5.18;;;4.63;;
39654;SDS011;25336;59.944;11.010;2024-03-02T11:23:13;6.40;;;5.28;;
39654;SDS011;25336;59.944;11.010;2024-03-02T11:25:40;6.18;;;4.80;;
39654;SDS011;25336;59.944;11.010;2024-03-02T11:28:06;5.05;;;4.55;;
39654;SDS011;25336;59.944;11.010;2024-03-02T11:33:03;6.30;;;5.30;;
39654;SDS011;25336;59.944;11.010;2024-03-02T11:35:33;7.00;;;5.45;;
39654;SDS011;25336;59.944;11.010;2024-03-02T11:38:12;5.03;;;4.53;;
39654;SDS011;25336;59.944;11.010;2024-03-02T11:40:39;5.68;;;5.07;;
39654;SDS011;25336;59.944;11.010;2024-03-02T11:43:05;5.47;;;4.90;;
39654;SDS011;25336;59.944;11.010;2024-03-02T11:45:33;6.05;;;5.13;;
39654;SDS011;25336;59.944;11.010;2024-03-02T11:47:59;6.32;;;4.40;;
39654;SDS011;25336;59.944;11.010;2024-03-02T11:50:41;6.65;;;4.43;;
39654;SDS011;25336;59.944;11.010;2024-03-02T11:53:11;7.60;;;5.45;;
39654;SDS011;25336;59.944;11.010;2024-03-02T11:55:39;6.28;;;4.80;;
39654;SDS011;25336;59.944;11.010;2024-03-02T11:58:11;5.60;;;4.93;;
39654;SDS011;25336;59.944;11.010;2024-03-02T12:00:38;5.68;;;4.95;;
39654;SDS011;25336;59.944;11.010;2024-03-02T12:03:04;8.30;;;5.72;;
39654;SDS011;25336;59.944;11.010;2024-03-02T12:05:31;5.97;;;5.03;;
39654;SDS011;25336;59.944;11.010;2024-03-02T12:07:58;6.35;;;5.22;;
39654;SDS011;25336;59.944;11.010;2024-03-02T12:10:33;10.38;;;5.18;;
39654;SDS011;25336;59.944;11.010;2024-03-02T12:13:03;6.97;;;5.55;;
39654;SDS011;25336;59.944;11.010;2024-03-02T12:15:37;8.57;;;6.60;;
39654;SDS011;25336;59.944;11.010;2024-03-02T12:18:03;6.97;;;5.18;;
39654;SDS011;25336;59.944;11.010;2024-03-02T12:20:31;5.75;;;5.25;;
39654;SDS011;25336;59.944;11.010;2024-03-02T12:22:58;10.00;;;6.20;;
39654;SDS011;25336;59.944;11.010;2024-03-02T12:25:25;6.90;;;5.63;;
39654;SDS011;25336;59.944;11.010;2024-03-02T12:27:55;8.20;;;6.57;;
39654;SDS011;25336;59.944;11.010;2024-03-02T12:30:22;8.75;;;6.57;;
39654;SDS011;25336;59.944;11.010;2024-03-02T12:32:48;11.73;;;7.70;;
39654;SDS011;25336;59.944;11.010;2024-03-02T12:35:14;9.85;;;7.72;;
39654;SDS011;25336;59.944;11.010;2024-03-02T12:40:13;12.85;;;6.57;;
39654;SDS011;25336;59.944;11.010;2024-03-02T12:42:40;16.38;;;7.85;;
39654;SDS011;25336;59.944;11.010;2024-03-02T12:45:09;12.68;;;7.18;;
39654;SDS011;25336;59.944;11.010;2024-03-02T12:47:36;10.38;;;6.65;;
39654;SDS011;25336;59.944;11.010;2024-03-02T12:50:03;14.50;;;7.90;;
39654;SDS011;25336;59.944;11.010;2024-03-02T12:52:29;17.40;;;9.55;;
39654;SDS011;25336;59.944;11.010;2024-03-02T12:54:58;13.65;;;7.78;;
39654;SDS011;25336;59.944;11.010;2024-03-02T12:57:25;11.35;;;6.78;;
39654;SDS011;25336;59.944;11.010;2024-03-02T12:59:52;9.23;;;7.50;;
39654;SDS011;25336;59.944;11.010;2024-03-02T13:02:22;13.95;;;7.68;;
39654;SDS011;25336;59.944;11.010;2024-03-02T13:04:54;10.18;;;6.82;;
39654;SDS011;25336;59.944;11.010;2024-03-02T13:07:24;9.40;;;6.57;;
39654;SDS011;25336;59.944;11.010;2024-03-02T13:09:51;9.07;;;5.97;;
39654;SDS011;25336;59.944;11.010;2024-03-02T13:12:17;10.05;;;7.13;;
39654;SDS011;25336;59.944;11.010;2024-03-02T13:14:44;9.30;;;6.20;;
39654;SDS011;25336;59.944;11.010;2024-03-02T13:17:19;11.43;;;6.68;;
39654;SDS011;25336;59.944;11.010;2024-03-02T13:19:55;8.32;;;6.78;;
39654;SDS011;25336;59.944;11.010;2024-03-02T13:22:24;8.65;;;6.50;;
39654;SDS011;25336;59.944;11.010;2024-03-02T13:24:50;8.77;;;6.38;;
39654;SDS011;25336;59.944;11.010;2024-03-02T13:27:17;6.55;;;5.25;;
39654;SDS011;25336;59.944;11.010;2024-03-02T13:29:46;8.43;;;6.03;;
39654;SDS011;25336;59.944;11.010;2024-03-02T13:32:13;7.97;;;6.45;;
39654;SDS011;25336;59.944;11.010;2024-03-02T13:34:42;8.85;;;6.28;;
39654;SDS011;25336;59.944;11.010;2024-03-02T13:37:08;8.18;;;5.88;;
39654;SDS011;25336;59.944;11.010;2024-03-02T13:39:35;5.93;;;5.32;;
39654;SDS011;25336;59.944;11.010;2024-03-02T13:42:14;7.00;;;5.60;;
39654;SDS011;25336;59.944;11.010;2024-03-02T13:44:40;9.65;;;5.32;;
39654;SDS011;25336;59.944;11.010;2024-03-02T13:47:14;6.57;;;5.65;;
39654;SDS011;25336;59.944;11.010;2024-03-02T13:49:40;6.95;;;5.15;;
39654;SDS011;25336;59.944;11.010;2024-03-02T13:52:10;5.43;;;4.93;;
39654;SDS011;25336;59.944;11.010;2024-03-02T13:54:38;6.55;;;5.07;;
39654;SDS011;25336;59.944;11.010;2024-03-02T13:57:05;7.00;;;5.35;;
39654;SDS011;25336;59.944;11.010;2024-03-02T13:59:31;7.53;;;5.13;;
39654;SDS011;25336;59.944;11.010;2024-03-02T14:01:57;8.05;;;5.68;;
39654;SDS011;25336;59.944;11.010;2024-03-02T14:04:24;5.85;;;5.22;;
39654;SDS011;25336;59.944;11.010;2024-03-02T14:06:50;7.07;;;5.55;;
39654;SDS011;25336;59.944;11.010;2024-03-02T14:09:16;6.50;;;5.32;;
39654;SDS011;25336;59.944;11.010;2024-03-02T14:11:42;7.43;;;5.60;;
39654;SDS011;25336;59.944;11.010;2024-03-02T14:14:07;6.10;;;5.47;;
39654;SDS011;25336;59.944;11.010;2024-03-02T14:16:33;5.30;;;4.80;;
39654;SDS011;25336;59.944;11.010;2024-03-02T14:18:59;7.78;;;5.00;;
39654;SDS011;25336;59.944;11.010;2024-03-02T14:21:25;5.22;;;4.72;;
39654;SDS011;25336;59.944;11.010;2024-03-02T14:23:50;5.45;;;4.95;;
39654;SDS011;25336;59.944;11.010;2024-03-02T14:26:16;7.00;;;5.25;;
39654;SDS011;25336;59.944;11.010;2024-03-02T14:28:42;5.90;;;5.25;;
39654;SDS011;25336;59.944;11.010;2024-03-02T14:31:08;6.55;;;5.65;;